<?xml version="1.0" encoding="UTF-8" standalone="no" ?>
<gpx xmlns="http://www.topografix.com/GPX/1/1" xmlns:xsi="http://www.w3.org/2001/XMLSchema-instance" xsi:schemaLocation="http://www.topografix.com/GPX/1/1 http://www.topografix.com/GPX/1/1/gpx.xsd" version="1.1" creator="VisuGPX - https://www.visugpx.com">
  <metadata>
    <name>40 CCR</name>
  </metadata>
  <trk>
    <name><![CDATA[Vélo de route]]></name>
    <trkseg>
      <trkpt lat="50.50363" lon="3.46454">
        <ele>21.963699</ele>
        <time>2022-09-02T17:48:52.539Z</time>
      </trkpt>
      <trkpt lat="50.50523" lon="3.46572">
        <ele>22.912954</ele>
        <time>2022-09-02T17:49:23.811Z</time>
      </trkpt>
      <trkpt lat="50.50675" lon="3.46646">
        <ele>24.49865</ele>
        <time>2022-09-02T17:49:56.713Z</time>
      </trkpt>
      <trkpt lat="50.50708" lon="3.46672">
        <ele>24.804763</ele>
        <time>2022-09-02T17:50:03.626Z</time>
      </trkpt>
      <trkpt lat="50.50735" lon="3.46707">
        <ele>25.099859</ele>
        <time>2022-09-02T17:50:09.708Z</time>
      </trkpt>
      <trkpt lat="50.50821" lon="3.46826">
        <ele>25.274077</ele>
        <time>2022-09-02T17:50:26.674Z</time>
      </trkpt>
      <trkpt lat="50.50831" lon="3.4684">
        <ele>25.241376</ele>
        <time>2022-09-02T17:50:28.423Z</time>
      </trkpt>
      <trkpt lat="50.50837" lon="3.46857">
        <ele>25.209763</ele>
        <time>2022-09-02T17:50:30.118Z</time>
      </trkpt>
      <trkpt lat="50.50839" lon="3.46894">
        <ele>25.151692</ele>
        <time>2022-09-02T17:50:33.215Z</time>
      </trkpt>
      <trkpt lat="50.5084" lon="3.46941">
        <ele>25.076918</ele>
        <time>2022-09-02T17:50:37.226Z</time>
      </trkpt>
      <trkpt lat="50.5085" lon="3.46978">
        <ele>25.012693</ele>
        <time>2022-09-02T17:50:40.651Z</time>
      </trkpt>
      <trkpt lat="50.50871" lon="3.47017">
        <ele>24.863782</ele>
        <time>2022-09-02T17:50:44.955Z</time>
      </trkpt>
      <trkpt lat="50.50936" lon="3.47117">
        <ele>24.43107</ele>
        <time>2022-09-02T17:50:56.885Z</time>
      </trkpt>
      <trkpt lat="50.51052" lon="3.47235">
        <ele>23.766055</ele>
        <time>2022-09-02T17:51:15.631Z</time>
      </trkpt>
      <trkpt lat="50.51065" lon="3.47258">
        <ele>23.675668</ele>
        <time>2022-09-02T17:51:18.089Z</time>
      </trkpt>
      <trkpt lat="50.51063" lon="3.47286">
        <ele>23.590628</ele>
        <time>2022-09-02T17:51:20.427Z</time>
      </trkpt>
      <trkpt lat="50.51009" lon="3.47427">
        <ele>23.035497</ele>
        <time>2022-09-02T17:51:34.231Z</time>
      </trkpt>
      <trkpt lat="50.51006" lon="3.47445">
        <ele>22.965105</ele>
        <time>2022-09-02T17:51:35.777Z</time>
      </trkpt>
      <trkpt lat="50.51016" lon="3.47475">
        <ele>22.832556</ele>
        <time>2022-09-02T17:51:38.628Z</time>
      </trkpt>
      <trkpt lat="50.51082" lon="3.4755">
        <ele>22.338424</ele>
        <time>2022-09-02T17:51:49.090Z</time>
      </trkpt>
      <trkpt lat="50.51104" lon="3.47596">
        <ele>22.142396</ele>
        <time>2022-09-02T17:51:53.679Z</time>
      </trkpt>
      <trkpt lat="50.5111" lon="3.47622">
        <ele>22.075611</ele>
        <time>2022-09-02T17:51:55.851Z</time>
      </trkpt>
      <trkpt lat="50.51109" lon="3.47654">
        <ele>22.000533</ele>
        <time>2022-09-02T17:51:58.616Z</time>
      </trkpt>
      <trkpt lat="50.51104" lon="3.47687">
        <ele>21.91978</ele>
        <time>2022-09-02T17:52:01.399Z</time>
      </trkpt>
      <trkpt lat="50.51082" lon="3.47762">
        <ele>21.723175</ele>
        <time>2022-09-02T17:52:08.636Z</time>
      </trkpt>
      <trkpt lat="50.51082" lon="3.47783">
        <ele>21.671398</ele>
        <time>2022-09-02T17:52:10.434Z</time>
      </trkpt>
      <trkpt lat="50.51113" lon="3.47827">
        <ele>21.514196</ele>
        <time>2022-09-02T17:52:16.665Z</time>
      </trkpt>
      <trkpt lat="50.51122" lon="3.47856">
        <ele>21.510616</ele>
        <time>2022-09-02T17:52:19.752Z</time>
      </trkpt>
      <trkpt lat="50.51125" lon="3.47964">
        <ele>21.506043</ele>
        <time>2022-09-02T17:52:29.941Z</time>
      </trkpt>
      <trkpt lat="50.51131" lon="3.48014">
        <ele>21.503924</ele>
        <time>2022-09-02T17:52:34.708Z</time>
      </trkpt>
      <trkpt lat="50.51143" lon="3.48169">
        <ele>21.515564</ele>
        <time>2022-09-02T17:52:49.587Z</time>
      </trkpt>
      <trkpt lat="50.51139" lon="3.48222">
        <ele>21.528573</ele>
        <time>2022-09-02T17:52:54.512Z</time>
      </trkpt>
      <trkpt lat="50.51131" lon="3.48247">
        <ele>21.535349</ele>
        <time>2022-09-02T17:52:57.076Z</time>
      </trkpt>
      <trkpt lat="50.511" lon="3.48334">
        <ele>21.559806</ele>
        <time>2022-09-02T17:53:06.262Z</time>
      </trkpt>
      <trkpt lat="50.51087" lon="3.48377">
        <ele>21.609933</ele>
        <time>2022-09-02T17:53:11.101Z</time>
      </trkpt>
      <trkpt lat="50.5108" lon="3.48506">
        <ele>22.176735</ele>
        <time>2022-09-02T17:53:25.078Z</time>
      </trkpt>
      <trkpt lat="50.51087" lon="3.48586">
        <ele>22.526719</ele>
        <time>2022-09-02T17:53:34.409Z</time>
      </trkpt>
      <trkpt lat="50.51084" lon="3.48622">
        <ele>22.685985</ele>
        <time>2022-09-02T17:53:38.755Z</time>
      </trkpt>
      <trkpt lat="50.51066" lon="3.48685">
        <ele>22.958103</ele>
        <time>2022-09-02T17:53:47.239Z</time>
      </trkpt>
      <trkpt lat="50.51096" lon="3.4873">
        <ele>23.199465</ele>
        <time>2022-09-02T17:53:55.101Z</time>
      </trkpt>
      <trkpt lat="50.51113" lon="3.48814">
        <ele>23.519359</ele>
        <time>2022-09-02T17:54:05.134Z</time>
      </trkpt>
      <trkpt lat="50.5114" lon="3.48867">
        <ele>23.76915</ele>
        <time>2022-09-02T17:54:11.974Z</time>
      </trkpt>
      <trkpt lat="50.51144" lon="3.48878">
        <ele>23.812744</ele>
        <time>2022-09-02T17:54:12.996Z</time>
      </trkpt>
      <trkpt lat="50.5114" lon="3.48908">
        <ele>23.729913</ele>
        <time>2022-09-02T17:54:15.954Z</time>
      </trkpt>
      <trkpt lat="50.51084" lon="3.49038">
        <ele>23.028493</ele>
        <time>2022-09-02T17:54:28.786Z</time>
      </trkpt>
      <trkpt lat="50.5104" lon="3.49284">
        <ele>21.945169</ele>
        <time>2022-09-02T17:54:48.305Z</time>
      </trkpt>
      <trkpt lat="50.51039" lon="3.49338">
        <ele>21.721422</ele>
        <time>2022-09-02T17:54:52.764Z</time>
      </trkpt>
      <trkpt lat="50.51121" lon="3.49492">
        <ele>21.87698</ele>
        <time>2022-09-02T17:55:12.603Z</time>
      </trkpt>
      <trkpt lat="50.51269" lon="3.49574">
        <ele>22.891778</ele>
        <time>2022-09-02T17:55:41.982Z</time>
      </trkpt>
      <trkpt lat="50.51284" lon="3.49655">
        <ele>23.303017</ele>
        <time>2022-09-02T17:55:51.639Z</time>
      </trkpt>
      <trkpt lat="50.51308" lon="3.49699">
        <ele>23.590141</ele>
        <time>2022-09-02T17:55:58.076Z</time>
      </trkpt>
      <trkpt lat="50.51322" lon="3.49739">
        <ele>23.811081</ele>
        <time>2022-09-02T17:56:02.890Z</time>
      </trkpt>
      <trkpt lat="50.51322" lon="3.49943">
        <ele>24.603863</ele>
        <time>2022-09-02T17:56:24.766Z</time>
      </trkpt>
      <trkpt lat="50.51349" lon="3.49997">
        <ele>24.869881</ele>
        <time>2022-09-02T17:56:32.611Z</time>
      </trkpt>
      <trkpt lat="50.51361" lon="3.50011">
        <ele>24.959467</ele>
        <time>2022-09-02T17:56:35.403Z</time>
      </trkpt>
      <trkpt lat="50.51371" lon="3.5002">
        <ele>25.02722</ele>
        <time>2022-09-02T17:56:37.379Z</time>
      </trkpt>
      <trkpt lat="50.51388" lon="3.50031">
        <ele>25.138906</ele>
        <time>2022-09-02T17:56:40.730Z</time>
      </trkpt>
      <trkpt lat="50.51407" lon="3.50075">
        <ele>25.343069</ele>
        <time>2022-09-02T17:56:46.815Z</time>
      </trkpt>
      <trkpt lat="50.51429" lon="3.50135">
        <ele>25.608059</ele>
        <time>2022-09-02T17:56:54.734Z</time>
      </trkpt>
      <trkpt lat="50.51429" lon="3.50165">
        <ele>25.722103</ele>
        <time>2022-09-02T17:56:57.997Z</time>
      </trkpt>
      <trkpt lat="50.51413" lon="3.50213">
        <ele>25.929801</ele>
        <time>2022-09-02T17:57:03.966Z</time>
      </trkpt>
      <trkpt lat="50.51383" lon="3.50594">
        <ele>25.539824</ele>
        <time>2022-09-02T17:57:38.594Z</time>
      </trkpt>
      <trkpt lat="50.51385" lon="3.50682">
        <ele>25.264388</ele>
        <time>2022-09-02T17:57:45.859Z</time>
      </trkpt>
      <trkpt lat="50.5137" lon="3.50913">
        <ele>24.428347</ele>
        <time>2022-09-02T17:58:04.914Z</time>
      </trkpt>
      <trkpt lat="50.51347" lon="3.51036">
        <ele>23.910945</ele>
        <time>2022-09-02T17:58:15.490Z</time>
      </trkpt>
      <trkpt lat="50.51339" lon="3.51141">
        <ele>23.515884</ele>
        <time>2022-09-02T17:58:24.245Z</time>
      </trkpt>
      <trkpt lat="50.51326" lon="3.51213">
        <ele>23.252044</ele>
        <time>2022-09-02T17:58:30.371Z</time>
      </trkpt>
      <trkpt lat="50.51239" lon="3.51418">
        <ele>22.739429</ele>
        <time>2022-09-02T17:58:51.234Z</time>
      </trkpt>
      <trkpt lat="50.51205" lon="3.51506">
        <ele>22.72419</ele>
        <time>2022-09-02T17:59:01.079Z</time>
      </trkpt>
      <trkpt lat="50.51201" lon="3.51522">
        <ele>22.721617</ele>
        <time>2022-09-02T17:59:02.898Z</time>
      </trkpt>
      <trkpt lat="50.51135" lon="3.51641">
        <ele>23.102022</ele>
        <time>2022-09-02T17:59:19.612Z</time>
      </trkpt>
      <trkpt lat="50.51114" lon="3.51704">
        <ele>23.37537</ele>
        <time>2022-09-02T17:59:27.684Z</time>
      </trkpt>
      <trkpt lat="50.51104" lon="3.51739">
        <ele>23.523476</ele>
        <time>2022-09-02T17:59:32.064Z</time>
      </trkpt>
      <trkpt lat="50.51095" lon="3.5177">
        <ele>23.652157</ele>
        <time>2022-09-02T17:59:35.931Z</time>
      </trkpt>
      <trkpt lat="50.5109" lon="3.518">
        <ele>23.769739</ele>
        <time>2022-09-02T17:59:39.432Z</time>
      </trkpt>
      <trkpt lat="50.51101" lon="3.5182">
        <ele>23.824141</ele>
        <time>2022-09-02T17:59:43.371Z</time>
      </trkpt>
      <trkpt lat="50.51159" lon="3.51879">
        <ele>23.979495</ele>
        <time>2022-09-02T17:59:58.349Z</time>
      </trkpt>
      <trkpt lat="50.51228" lon="3.51935">
        <ele>24.154194</ele>
        <time>2022-09-02T18:00:13.902Z</time>
      </trkpt>
      <trkpt lat="50.51267" lon="3.5196">
        <ele>24.214731</ele>
        <time>2022-09-02T18:00:22.590Z</time>
      </trkpt>
      <trkpt lat="50.51345" lon="3.51994">
        <ele>24.26797</ele>
        <time>2022-09-02T18:00:38.857Z</time>
      </trkpt>
      <trkpt lat="50.51355" lon="3.51998">
        <ele>24.274778</ele>
        <time>2022-09-02T18:00:40.898Z</time>
      </trkpt>
      <trkpt lat="50.51408" lon="3.52001">
        <ele>24.309782</ele>
        <time>2022-09-02T18:00:51.788Z</time>
      </trkpt>
      <trkpt lat="50.51439" lon="3.52012">
        <ele>24.401343</ele>
        <time>2022-09-02T18:00:58.496Z</time>
      </trkpt>
      <trkpt lat="50.51497" lon="3.52047">
        <ele>24.687639</ele>
        <time>2022-09-02T18:01:12.290Z</time>
      </trkpt>
      <trkpt lat="50.51521" lon="3.52073">
        <ele>24.823171</ele>
        <time>2022-09-02T18:01:19.016Z</time>
      </trkpt>
      <trkpt lat="50.51566" lon="3.52137">
        <ele>25.098814</ele>
        <time>2022-09-02T18:01:32.428Z</time>
      </trkpt>
      <trkpt lat="50.51584" lon="3.52161">
        <ele>25.21999</ele>
        <time>2022-09-02T18:01:37.800Z</time>
      </trkpt>
      <trkpt lat="50.51827" lon="3.52368">
        <ele>26.669272</ele>
        <time>2022-09-02T18:02:39.427Z</time>
      </trkpt>
      <trkpt lat="50.51849" lon="3.52375">
        <ele>26.787037</ele>
        <time>2022-09-02T18:02:44.487Z</time>
      </trkpt>
      <trkpt lat="50.51973" lon="3.52378">
        <ele>27.481189</ele>
        <time>2022-09-02T18:03:12.159Z</time>
      </trkpt>
      <trkpt lat="50.52072" lon="3.52374">
        <ele>28.057262</ele>
        <time>2022-09-02T18:03:34.468Z</time>
      </trkpt>
      <trkpt lat="50.5211" lon="3.52367">
        <ele>28.192719</ele>
        <time>2022-09-02T18:03:43.192Z</time>
      </trkpt>
      <trkpt lat="50.52187" lon="3.52349">
        <ele>28.444201</ele>
        <time>2022-09-02T18:04:00.630Z</time>
      </trkpt>
      <trkpt lat="50.52187" lon="3.52349">
        <ele>28.444201</ele>
        <time>2022-09-02T18:04:00.632Z</time>
      </trkpt>
      <trkpt lat="50.52187" lon="3.52349">
        <ele>28.444201</ele>
        <time>2022-09-02T18:04:00.637Z</time>
      </trkpt>
      <trkpt lat="50.52221" lon="3.52533">
        <ele>28.436252</ele>
        <time>2022-09-02T18:04:25.252Z</time>
      </trkpt>
      <trkpt lat="50.5222" lon="3.52549">
        <ele>28.393529</ele>
        <time>2022-09-02T18:04:27.131Z</time>
      </trkpt>
      <trkpt lat="50.52211" lon="3.5256">
        <ele>28.347186</ele>
        <time>2022-09-02T18:04:29.084Z</time>
      </trkpt>
      <trkpt lat="50.52089" lon="3.52612">
        <ele>27.792392</ele>
        <time>2022-09-02T18:04:52.363Z</time>
      </trkpt>
      <trkpt lat="50.52079" lon="3.52637">
        <ele>27.689164</ele>
        <time>2022-09-02T18:04:55.722Z</time>
      </trkpt>
      <trkpt lat="50.52054" lon="3.52645">
        <ele>27.552488</ele>
        <time>2022-09-02T18:04:58.976Z</time>
      </trkpt>
      <trkpt lat="50.52091" lon="3.52718">
        <ele>27.229725</ele>
        <time>2022-09-02T18:05:10.014Z</time>
      </trkpt>
      <trkpt lat="50.52088" lon="3.52807">
        <ele>26.925021</ele>
        <time>2022-09-02T18:05:20.405Z</time>
      </trkpt>
      <trkpt lat="50.52141" lon="3.5321">
        <ele>26.053312</ele>
        <time>2022-09-02T18:06:09.728Z</time>
      </trkpt>
      <trkpt lat="50.52165" lon="3.53274">
        <ele>25.996829</ele>
        <time>2022-09-02T18:06:18.860Z</time>
      </trkpt>
      <trkpt lat="50.522" lon="3.5331">
        <ele>25.945906</ele>
        <time>2022-09-02T18:06:27.671Z</time>
      </trkpt>
      <trkpt lat="50.52211" lon="3.53333">
        <ele>26.00786</ele>
        <time>2022-09-02T18:06:31.658Z</time>
      </trkpt>
      <trkpt lat="50.52249" lon="3.53434">
        <ele>26.431174</ele>
        <time>2022-09-02T18:06:48.318Z</time>
      </trkpt>
      <trkpt lat="50.52285" lon="3.53527">
        <ele>26.821599</ele>
        <time>2022-09-02T18:07:04.293Z</time>
      </trkpt>
      <trkpt lat="50.52329" lon="3.53597">
        <ele>27.158714</ele>
        <time>2022-09-02T18:07:18.828Z</time>
      </trkpt>
      <trkpt lat="50.52341" lon="3.53646">
        <ele>27.329047</ele>
        <time>2022-09-02T18:07:26.420Z</time>
      </trkpt>
      <trkpt lat="50.52347" lon="3.53702">
        <ele>27.513424</ele>
        <time>2022-09-02T18:07:34.507Z</time>
      </trkpt>
      <trkpt lat="50.52274" lon="3.53804">
        <ele>27.873367</ele>
        <time>2022-09-02T18:07:55.551Z</time>
      </trkpt>
      <trkpt lat="50.52177" lon="3.53907">
        <ele>27.827893</ele>
        <time>2022-09-02T18:08:19.129Z</time>
      </trkpt>
      <trkpt lat="50.52157" lon="3.53912">
        <ele>27.82006</ele>
        <time>2022-09-02T18:08:22.995Z</time>
      </trkpt>
      <trkpt lat="50.52134" lon="3.53904">
        <ele>27.763489</ele>
        <time>2022-09-02T18:08:27.639Z</time>
      </trkpt>
      <trkpt lat="50.52031" lon="3.53837">
        <ele>26.928656</ele>
        <time>2022-09-02T18:08:47.857Z</time>
      </trkpt>
      <trkpt lat="50.51983" lon="3.53819">
        <ele>26.55728</ele>
        <time>2022-09-02T18:08:56.321Z</time>
      </trkpt>
      <trkpt lat="50.51894" lon="3.53817">
        <ele>25.894259</ele>
        <time>2022-09-02T18:09:11.548Z</time>
      </trkpt>
      <trkpt lat="50.51831" lon="3.53802">
        <ele>25.418461</ele>
        <time>2022-09-02T18:09:23.022Z</time>
      </trkpt>
      <trkpt lat="50.51794" lon="3.53808">
        <ele>25.145116</ele>
        <time>2022-09-02T18:09:30.031Z</time>
      </trkpt>
      <trkpt lat="50.51791" lon="3.53838">
        <ele>25.09269</ele>
        <time>2022-09-02T18:09:34.202Z</time>
      </trkpt>
      <trkpt lat="50.51811" lon="3.54">
        <ele>24.883798</ele>
        <time>2022-09-02T18:09:55.080Z</time>
      </trkpt>
      <trkpt lat="50.51811" lon="3.54038">
        <ele>24.83576</ele>
        <time>2022-09-02T18:09:59.755Z</time>
      </trkpt>
      <trkpt lat="50.51798" lon="3.54103">
        <ele>24.678047</ele>
        <time>2022-09-02T18:10:08.356Z</time>
      </trkpt>
      <trkpt lat="50.51773" lon="3.54172">
        <ele>24.169773</ele>
        <time>2022-09-02T18:10:17.376Z</time>
      </trkpt>
      <trkpt lat="50.5175" lon="3.54215">
        <ele>23.816226</ele>
        <time>2022-09-02T18:10:23.309Z</time>
      </trkpt>
      <trkpt lat="50.51681" lon="3.5429">
        <ele>22.971439</ele>
        <time>2022-09-02T18:10:37.424Z</time>
      </trkpt>
      <trkpt lat="50.51631" lon="3.54334">
        <ele>22.632946</ele>
        <time>2022-09-02T18:10:47.169Z</time>
      </trkpt>
      <trkpt lat="50.51634" lon="3.54361">
        <ele>22.529573</ele>
        <time>2022-09-02T18:10:50.361Z</time>
      </trkpt>
      <trkpt lat="50.5169" lon="3.54538">
        <ele>21.962734</ele>
        <time>2022-09-02T18:11:14.145Z</time>
      </trkpt>
      <trkpt lat="50.51757" lon="3.54662">
        <ele>22.296814</ele>
        <time>2022-09-02T18:11:37.039Z</time>
      </trkpt>
      <trkpt lat="50.5179" lon="3.54718">
        <ele>22.454106</ele>
        <time>2022-09-02T18:11:47.812Z</time>
      </trkpt>
      <trkpt lat="50.51854" lon="3.54801">
        <ele>22.780102</ele>
        <time>2022-09-02T18:12:06.240Z</time>
      </trkpt>
      <trkpt lat="50.51937" lon="3.54875">
        <ele>23.159334</ele>
        <time>2022-09-02T18:12:26.918Z</time>
      </trkpt>
      <trkpt lat="50.5198" lon="3.54901">
        <ele>23.280751</ele>
        <time>2022-09-02T18:12:36.809Z</time>
      </trkpt>
      <trkpt lat="50.5204" lon="3.54909">
        <ele>23.413101</ele>
        <time>2022-09-02T18:12:45.902Z</time>
      </trkpt>
      <trkpt lat="50.52182" lon="3.55054">
        <ele>24.182331</ele>
        <time>2022-09-02T18:13:12.464Z</time>
      </trkpt>
      <trkpt lat="50.52203" lon="3.55055">
        <ele>24.329454</ele>
        <time>2022-09-02T18:13:16.278Z</time>
      </trkpt>
      <trkpt lat="50.52327" lon="3.54942">
        <ele>26.014491</ele>
        <time>2022-09-02T18:13:44.469Z</time>
      </trkpt>
      <trkpt lat="50.52356" lon="3.54915">
        <ele>26.586496</ele>
        <time>2022-09-02T18:13:52.173Z</time>
      </trkpt>
      <trkpt lat="50.52449" lon="3.54833">
        <ele>28.403854</ele>
        <time>2022-09-02T18:14:16.603Z</time>
      </trkpt>
      <trkpt lat="50.52511" lon="3.54785">
        <ele>29.638396</ele>
        <time>2022-09-02T18:14:32.592Z</time>
      </trkpt>
      <trkpt lat="50.52558" lon="3.54762">
        <ele>30.513094</ele>
        <time>2022-09-02T18:14:43.302Z</time>
      </trkpt>
      <trkpt lat="50.52627" lon="3.5473">
        <ele>31.437024</ele>
        <time>2022-09-02T18:14:57.236Z</time>
      </trkpt>
      <trkpt lat="50.52779" lon="3.54659">
        <ele>32.95875</ele>
        <time>2022-09-02T18:15:25.980Z</time>
      </trkpt>
      <trkpt lat="50.52843" lon="3.54632">
        <ele>33.663113</ele>
        <time>2022-09-02T18:15:38.147Z</time>
      </trkpt>
      <trkpt lat="50.5293" lon="3.54619">
        <ele>34.586761</ele>
        <time>2022-09-02T18:15:55.671Z</time>
      </trkpt>
      <trkpt lat="50.53154" lon="3.54615">
        <ele>36.923492</ele>
        <time>2022-09-02T18:16:39.103Z</time>
      </trkpt>
      <trkpt lat="50.53191" lon="3.54638">
        <ele>37.146311</ele>
        <time>2022-09-02T18:16:45.693Z</time>
      </trkpt>
      <trkpt lat="50.53301" lon="3.54774">
        <ele>37.979533</ele>
        <time>2022-09-02T18:17:08.333Z</time>
      </trkpt>
      <trkpt lat="50.53323" lon="3.54801">
        <ele>38.162731</ele>
        <time>2022-09-02T18:17:12.870Z</time>
      </trkpt>
      <trkpt lat="50.53432" lon="3.54692">
        <ele>39.079948</ele>
        <time>2022-09-02T18:17:43.392Z</time>
      </trkpt>
      <trkpt lat="50.53491" lon="3.54613">
        <ele>39.871951</ele>
        <time>2022-09-02T18:18:02.180Z</time>
      </trkpt>
      <trkpt lat="50.53548" lon="3.54556">
        <ele>40.570493</ele>
        <time>2022-09-02T18:18:18.721Z</time>
      </trkpt>
      <trkpt lat="50.53675" lon="3.54431">
        <ele>42.448137</ele>
        <time>2022-09-02T18:18:55.188Z</time>
      </trkpt>
      <trkpt lat="50.53681" lon="3.54427">
        <ele>42.528735</ele>
        <time>2022-09-02T18:18:56.863Z</time>
      </trkpt>
      <trkpt lat="50.5369" lon="3.54422">
        <ele>42.655566</ele>
        <time>2022-09-02T18:18:59.458Z</time>
      </trkpt>
      <trkpt lat="50.53703" lon="3.54417">
        <ele>42.82286</ele>
        <time>2022-09-02T18:19:02.928Z</time>
      </trkpt>
      <trkpt lat="50.53804" lon="3.54386">
        <ele>44.600162</ele>
        <time>2022-09-02T18:19:32.237Z</time>
      </trkpt>
      <trkpt lat="50.53961" lon="3.54335">
        <ele>46.892871</ele>
        <time>2022-09-02T18:20:07.465Z</time>
      </trkpt>
      <trkpt lat="50.53984" lon="3.5434">
        <ele>47.082973</ele>
        <time>2022-09-02T18:20:11.790Z</time>
      </trkpt>
      <trkpt lat="50.54033" lon="3.54377">
        <ele>47.523306</ele>
        <time>2022-09-02T18:20:20.994Z</time>
      </trkpt>
      <trkpt lat="50.54093" lon="3.54426">
        <ele>47.774426</ele>
        <time>2022-09-02T18:20:30.632Z</time>
      </trkpt>
      <trkpt lat="50.54117" lon="3.54366">
        <ele>47.668798</ele>
        <time>2022-09-02T18:20:38.852Z</time>
      </trkpt>
      <trkpt lat="50.54188" lon="3.54225">
        <ele>47.438547</ele>
        <time>2022-09-02T18:21:00.553Z</time>
      </trkpt>
      <trkpt lat="50.5428" lon="3.53977">
        <ele>47.910828</ele>
        <time>2022-09-02T18:21:39.766Z</time>
      </trkpt>
      <trkpt lat="50.54347" lon="3.5386">
        <ele>48.700383</ele>
        <time>2022-09-02T18:22:02.250Z</time>
      </trkpt>
      <trkpt lat="50.5446" lon="3.53725">
        <ele>50.273335</ele>
        <time>2022-09-02T18:22:37.718Z</time>
      </trkpt>
      <trkpt lat="50.545" lon="3.53765">
        <ele>50.954939</ele>
        <time>2022-09-02T18:22:48.435Z</time>
      </trkpt>
      <trkpt lat="50.54624" lon="3.53825">
        <ele>52.277228</ele>
        <time>2022-09-02T18:23:14.866Z</time>
      </trkpt>
      <trkpt lat="50.54703" lon="3.5386">
        <ele>52.823626</ele>
        <time>2022-09-02T18:23:28.916Z</time>
      </trkpt>
      <trkpt lat="50.54803" lon="3.53902">
        <ele>52.702779</ele>
        <time>2022-09-02T18:23:42.513Z</time>
      </trkpt>
      <trkpt lat="50.54829" lon="3.53899">
        <ele>52.596234</ele>
        <time>2022-09-02T18:23:45.907Z</time>
      </trkpt>
      <trkpt lat="50.54853" lon="3.53884">
        <ele>52.489567</ele>
        <time>2022-09-02T18:23:49.334Z</time>
      </trkpt>
      <trkpt lat="50.5488" lon="3.53851">
        <ele>52.349035</ele>
        <time>2022-09-02T18:23:54.053Z</time>
      </trkpt>
      <trkpt lat="50.54915" lon="3.53791">
        <ele>52.138577</ele>
        <time>2022-09-02T18:24:01.151Z</time>
      </trkpt>
      <trkpt lat="50.54937" lon="3.53764">
        <ele>52.024395</ele>
        <time>2022-09-02T18:24:04.936Z</time>
      </trkpt>
      <trkpt lat="50.54964" lon="3.53741">
        <ele>51.897662</ele>
        <time>2022-09-02T18:24:09.075Z</time>
      </trkpt>
      <trkpt lat="50.55033" lon="3.53709">
        <ele>51.601471</ele>
        <time>2022-09-02T18:24:18.889Z</time>
      </trkpt>
      <trkpt lat="50.55058" lon="3.5369">
        <ele>51.459145</ele>
        <time>2022-09-02T18:24:22.510Z</time>
      </trkpt>
      <trkpt lat="50.55114" lon="3.53594">
        <ele>50.918212</ele>
        <time>2022-09-02T18:24:33.148Z</time>
      </trkpt>
      <trkpt lat="50.55129" lon="3.53585">
        <ele>50.812465</ele>
        <time>2022-09-02T18:24:35.217Z</time>
      </trkpt>
      <trkpt lat="50.55143" lon="3.53559">
        <ele>50.669063</ele>
        <time>2022-09-02T18:24:37.964Z</time>
      </trkpt>
      <trkpt lat="50.55192" lon="3.53434">
        <ele>49.948451</ele>
        <time>2022-09-02T18:24:49.819Z</time>
      </trkpt>
      <trkpt lat="50.55238" lon="3.53401">
        <ele>49.497119</ele>
        <time>2022-09-02T18:24:56.351Z</time>
      </trkpt>
      <trkpt lat="50.55336" lon="3.53445">
        <ele>48.55364</ele>
        <time>2022-09-02T18:25:08.633Z</time>
      </trkpt>
      <trkpt lat="50.5537" lon="3.53457">
        <ele>48.176506</ele>
        <time>2022-09-02T18:25:12.639Z</time>
      </trkpt>
      <trkpt lat="50.55435" lon="3.53459">
        <ele>47.458343</ele>
        <time>2022-09-02T18:25:20.400Z</time>
      </trkpt>
      <trkpt lat="50.55445" lon="3.53394">
        <ele>46.999796</ele>
        <time>2022-09-02T18:25:25.391Z</time>
      </trkpt>
      <trkpt lat="50.55474" lon="3.53226">
        <ele>46.778324</ele>
        <time>2022-09-02T18:25:40.023Z</time>
      </trkpt>
      <trkpt lat="50.55475" lon="3.53174">
        <ele>46.777289</ele>
        <time>2022-09-02T18:25:45.105Z</time>
      </trkpt>
      <trkpt lat="50.55433" lon="3.53022">
        <ele>47.24709</ele>
        <time>2022-09-02T18:26:10.485Z</time>
      </trkpt>
      <trkpt lat="50.55423" lon="3.52976">
        <ele>47.538095</ele>
        <time>2022-09-02T18:26:18.130Z</time>
      </trkpt>
      <trkpt lat="50.55422" lon="3.52911">
        <ele>47.92928</ele>
        <time>2022-09-02T18:26:28.439Z</time>
      </trkpt>
      <trkpt lat="50.55425" lon="3.52794">
        <ele>48.540007</ele>
        <time>2022-09-02T18:26:45.935Z</time>
      </trkpt>
      <trkpt lat="50.55439" lon="3.52582">
        <ele>49.036081</ele>
        <time>2022-09-02T18:27:15.097Z</time>
      </trkpt>
      <trkpt lat="50.55433" lon="3.52323">
        <ele>49.571449</ele>
        <time>2022-09-02T18:27:49.341Z</time>
      </trkpt>
      <trkpt lat="50.55465" lon="3.52157">
        <ele>50.42685</ele>
        <time>2022-09-02T18:28:14.422Z</time>
      </trkpt>
      <trkpt lat="50.55471" lon="3.52096">
        <ele>50.851216</ele>
        <time>2022-09-02T18:28:24.006Z</time>
      </trkpt>
      <trkpt lat="50.55495" lon="3.51548">
        <ele>55.641313</ele>
        <time>2022-09-02T18:29:56.339Z</time>
      </trkpt>
      <trkpt lat="50.55503" lon="3.51443">
        <ele>56.490711</ele>
        <time>2022-09-02T18:30:12.965Z</time>
      </trkpt>
      <trkpt lat="50.55533" lon="3.51321">
        <ele>56.995569</ele>
        <time>2022-09-02T18:30:31.901Z</time>
      </trkpt>
      <trkpt lat="50.55538" lon="3.51298">
        <ele>57.06024</ele>
        <time>2022-09-02T18:30:35.205Z</time>
      </trkpt>
      <trkpt lat="50.55541" lon="3.51279">
        <ele>57.11208</ele>
        <time>2022-09-02T18:30:37.163Z</time>
      </trkpt>
      <trkpt lat="50.55531" lon="3.51268">
        <ele>57.165515</ele>
        <time>2022-09-02T18:30:39.099Z</time>
      </trkpt>
      <trkpt lat="50.55522" lon="3.51275">
        <ele>57.206219</ele>
        <time>2022-09-02T18:30:40.609Z</time>
      </trkpt>
      <trkpt lat="50.5552" lon="3.51284">
        <ele>57.233339</ele>
        <time>2022-09-02T18:30:41.616Z</time>
      </trkpt>
      <trkpt lat="50.55508" lon="3.51313">
        <ele>57.324676</ele>
        <time>2022-09-02T18:30:44.868Z</time>
      </trkpt>
      <trkpt lat="50.55464" lon="3.51357">
        <ele>57.438355</ele>
        <time>2022-09-02T18:30:53.098Z</time>
      </trkpt>
      <trkpt lat="50.55449" lon="3.51368">
        <ele>57.399071</ele>
        <time>2022-09-02T18:30:55.836Z</time>
      </trkpt>
      <trkpt lat="50.5539" lon="3.51415">
        <ele>57.241088</ele>
        <time>2022-09-02T18:31:05.784Z</time>
      </trkpt>
      <trkpt lat="50.55361" lon="3.51418">
        <ele>57.173811</ele>
        <time>2022-09-02T18:31:09.671Z</time>
      </trkpt>
      <trkpt lat="50.55334" lon="3.51409">
        <ele>57.106784</ele>
        <time>2022-09-02T18:31:13.452Z</time>
      </trkpt>
      <trkpt lat="50.55318" lon="3.51398">
        <ele>57.066083</ele>
        <time>2022-09-02T18:31:15.747Z</time>
      </trkpt>
      <trkpt lat="50.55222" lon="3.51315">
        <ele>55.248211</ele>
        <time>2022-09-02T18:31:28.744Z</time>
      </trkpt>
      <trkpt lat="50.55191" lon="3.5129">
        <ele>54.633961</ele>
        <time>2022-09-02T18:31:32.557Z</time>
      </trkpt>
      <trkpt lat="50.5517" lon="3.51271">
        <ele>54.207558</ele>
        <time>2022-09-02T18:31:35.047Z</time>
      </trkpt>
      <trkpt lat="50.55057" lon="3.51176">
        <ele>50.903083</ele>
        <time>2022-09-02T18:31:48.168Z</time>
      </trkpt>
      <trkpt lat="50.55017" lon="3.51151">
        <ele>49.733813</ele>
        <time>2022-09-02T18:31:52.750Z</time>
      </trkpt>
      <trkpt lat="50.55053" lon="3.50962">
        <ele>46.459942</ele>
        <time>2022-09-02T18:32:06.010Z</time>
      </trkpt>
      <trkpt lat="50.55079" lon="3.50878">
        <ele>44.949672</ele>
        <time>2022-09-02T18:32:12.199Z</time>
      </trkpt>
      <trkpt lat="50.55095" lon="3.50843">
        <ele>44.228824</ele>
        <time>2022-09-02T18:32:15.125Z</time>
      </trkpt>
      <trkpt lat="50.55089" lon="3.5079">
        <ele>43.317842</ele>
        <time>2022-09-02T18:32:18.625Z</time>
      </trkpt>
      <trkpt lat="50.55102" lon="3.50717">
        <ele>42.021672</ele>
        <time>2022-09-02T18:32:23.645Z</time>
      </trkpt>
      <trkpt lat="50.55104" lon="3.50688">
        <ele>41.524725</ele>
        <time>2022-09-02T18:32:25.535Z</time>
      </trkpt>
      <trkpt lat="50.55101" lon="3.50663">
        <ele>41.100832</ele>
        <time>2022-09-02T18:32:27.191Z</time>
      </trkpt>
      <trkpt lat="50.55087" lon="3.50621">
        <ele>40.275885</ele>
        <time>2022-09-02T18:32:30.348Z</time>
      </trkpt>
      <trkpt lat="50.55088" lon="3.50569">
        <ele>39.45645</ele>
        <time>2022-09-02T18:32:33.762Z</time>
      </trkpt>
      <trkpt lat="50.55149" lon="3.50426">
        <ele>37.706169</ele>
        <time>2022-09-02T18:32:46.324Z</time>
      </trkpt>
      <trkpt lat="50.55222" lon="3.50144">
        <ele>35.411983</ele>
        <time>2022-09-02T18:33:09.171Z</time>
      </trkpt>
      <trkpt lat="50.5524" lon="3.50064">
        <ele>34.919154</ele>
        <time>2022-09-02T18:33:16.341Z</time>
      </trkpt>
      <trkpt lat="50.55247" lon="3.50057">
        <ele>34.927953</ele>
        <time>2022-09-02T18:33:17.496Z</time>
      </trkpt>
      <trkpt lat="50.55246" lon="3.50044">
        <ele>34.936746</ele>
        <time>2022-09-02T18:33:18.649Z</time>
      </trkpt>
      <trkpt lat="50.55249" lon="3.50041">
        <ele>34.939935</ele>
        <time>2022-09-02T18:33:19.244Z</time>
      </trkpt>
      <trkpt lat="50.55325" lon="3.49891">
        <ele>35.070043</ele>
        <time>2022-09-02T18:33:46.120Z</time>
      </trkpt>
      <trkpt lat="50.55362" lon="3.49829">
        <ele>34.894809</ele>
        <time>2022-09-02T18:33:57.158Z</time>
      </trkpt>
      <trkpt lat="50.55395" lon="3.49723">
        <ele>34.032464</ele>
        <time>2022-09-02T18:34:10.570Z</time>
      </trkpt>
      <trkpt lat="50.55398" lon="3.49636">
        <ele>33.396813</ele>
        <time>2022-09-02T18:34:19.509Z</time>
      </trkpt>
      <trkpt lat="50.55451" lon="3.4938">
        <ele>30.685572</ele>
        <time>2022-09-02T18:34:46.229Z</time>
      </trkpt>
      <trkpt lat="50.55464" lon="3.49354">
        <ele>30.326076</ele>
        <time>2022-09-02T18:34:49.874Z</time>
      </trkpt>
      <trkpt lat="50.55577" lon="3.49324">
        <ele>29.908542</ele>
        <time>2022-09-02T18:35:10.984Z</time>
      </trkpt>
      <trkpt lat="50.55586" lon="3.49311">
        <ele>29.895819</ele>
        <time>2022-09-02T18:35:13.540Z</time>
      </trkpt>
      <trkpt lat="50.55621" lon="3.4916">
        <ele>29.995745</ele>
        <time>2022-09-02T18:35:36.625Z</time>
      </trkpt>
      <trkpt lat="50.55669" lon="3.49178">
        <ele>30.277939</ele>
        <time>2022-09-02T18:35:47.859Z</time>
      </trkpt>
      <trkpt lat="50.55713" lon="3.49224">
        <ele>30.576733</ele>
        <time>2022-09-02T18:35:59.766Z</time>
      </trkpt>
      <trkpt lat="50.55735" lon="3.49233">
        <ele>30.705804</ele>
        <time>2022-09-02T18:36:04.946Z</time>
      </trkpt>
      <trkpt lat="50.55859" lon="3.49242">
        <ele>31.039597</ele>
        <time>2022-09-02T18:36:32.827Z</time>
      </trkpt>
      <trkpt lat="50.55872" lon="3.49079">
        <ele>31.129956</ele>
        <time>2022-09-02T18:36:53.066Z</time>
      </trkpt>
      <trkpt lat="50.559" lon="3.48959">
        <ele>30.918334</ele>
        <time>2022-09-02T18:37:07.957Z</time>
      </trkpt>
      <trkpt lat="50.55926" lon="3.48777">
        <ele>30.982897</ele>
        <time>2022-09-02T18:37:31.759Z</time>
      </trkpt>
      <trkpt lat="50.55951" lon="3.48694">
        <ele>31.318754</ele>
        <time>2022-09-02T18:37:44.542Z</time>
      </trkpt>
      <trkpt lat="50.55969" lon="3.48671">
        <ele>31.457036</ele>
        <time>2022-09-02T18:37:50.065Z</time>
      </trkpt>
      <trkpt lat="50.55996" lon="3.48653">
        <ele>31.622101</ele>
        <time>2022-09-02T18:37:56.910Z</time>
      </trkpt>
      <trkpt lat="50.56044" lon="3.48546">
        <ele>32.444773</ele>
        <time>2022-09-02T18:38:18.137Z</time>
      </trkpt>
      <trkpt lat="50.5608" lon="3.48392">
        <ele>33.659381</ele>
        <time>2022-09-02T18:38:44.125Z</time>
      </trkpt>
      <trkpt lat="50.56096" lon="3.48295">
        <ele>34.224813</ele>
        <time>2022-09-02T18:38:59.556Z</time>
      </trkpt>
      <trkpt lat="50.56145" lon="3.47873">
        <ele>36.0013</ele>
        <time>2022-09-02T18:40:01.928Z</time>
      </trkpt>
      <trkpt lat="50.56185" lon="3.4781">
        <ele>36.240616</ele>
        <time>2022-09-02T18:40:13.736Z</time>
      </trkpt>
      <trkpt lat="50.56194" lon="3.47808">
        <ele>36.256665</ele>
        <time>2022-09-02T18:40:15.656Z</time>
      </trkpt>
      <trkpt lat="50.56226" lon="3.47826">
        <ele>36.316392</ele>
        <time>2022-09-02T18:40:22.643Z</time>
      </trkpt>
      <trkpt lat="50.56234" lon="3.47774">
        <ele>36.377099</ele>
        <time>2022-09-02T18:40:29.661Z</time>
      </trkpt>
      <trkpt lat="50.56236" lon="3.47754">
        <ele>36.399256</ele>
        <time>2022-09-02T18:40:32.228Z</time>
      </trkpt>
      <trkpt lat="50.56298" lon="3.47689">
        <ele>36.530681</ele>
        <time>2022-09-02T18:40:43.775Z</time>
      </trkpt>
      <trkpt lat="50.56326" lon="3.47642">
        <ele>36.841828</ele>
        <time>2022-09-02T18:40:50.448Z</time>
      </trkpt>
      <trkpt lat="50.56378" lon="3.47622">
        <ele>37.254137</ele>
        <time>2022-09-02T18:40:59.806Z</time>
      </trkpt>
      <trkpt lat="50.56432" lon="3.47581">
        <ele>37.713234</ele>
        <time>2022-09-02T18:41:10.776Z</time>
      </trkpt>
      <trkpt lat="50.56576" lon="3.47466">
        <ele>39.783753</ele>
        <time>2022-09-02T18:41:43.703Z</time>
      </trkpt>
      <trkpt lat="50.56641" lon="3.47421">
        <ele>40.691562</ele>
        <time>2022-09-02T18:41:58.488Z</time>
      </trkpt>
      <trkpt lat="50.56701" lon="3.47411">
        <ele>41.382135</ele>
        <time>2022-09-02T18:42:10.782Z</time>
      </trkpt>
      <trkpt lat="50.56774" lon="3.47365">
        <ele>42.278562</ele>
        <time>2022-09-02T18:42:25.747Z</time>
      </trkpt>
      <trkpt lat="50.56732" lon="3.47191">
        <ele>42.623862</ele>
        <time>2022-09-02T18:42:44.974Z</time>
      </trkpt>
      <trkpt lat="50.56742" lon="3.47048">
        <ele>42.647678</ele>
        <time>2022-09-02T18:42:57.997Z</time>
      </trkpt>
      <trkpt lat="50.56742" lon="3.46947">
        <ele>42.202964</ele>
        <time>2022-09-02T18:43:06.534Z</time>
      </trkpt>
      <trkpt lat="50.56717" lon="3.46782">
        <ele>41.459126</ele>
        <time>2022-09-02T18:43:19.814Z</time>
      </trkpt>
      <trkpt lat="50.56694" lon="3.46624">
        <ele>40.828467</ele>
        <time>2022-09-02T18:43:32.649Z</time>
      </trkpt>
      <trkpt lat="50.56686" lon="3.46567">
        <ele>40.604728</ele>
        <time>2022-09-02T18:43:37.582Z</time>
      </trkpt>
      <trkpt lat="50.56675" lon="3.46474">
        <ele>40.463364</ele>
        <time>2022-09-02T18:43:46.249Z</time>
      </trkpt>
      <trkpt lat="50.56668" lon="3.46401">
        <ele>40.561067</ele>
        <time>2022-09-02T18:43:53.567Z</time>
      </trkpt>
      <trkpt lat="50.56661" lon="3.46326">
        <ele>40.660159</ele>
        <time>2022-09-02T18:44:01.761Z</time>
      </trkpt>
      <trkpt lat="50.5666" lon="3.46305">
        <ele>40.687379</ele>
        <time>2022-09-02T18:44:03.972Z</time>
      </trkpt>
      <trkpt lat="50.56659" lon="3.46275">
        <ele>40.726166</ele>
        <time>2022-09-02T18:44:07.110Z</time>
      </trkpt>
      <trkpt lat="50.56659" lon="3.46263">
        <ele>40.742961</ele>
        <time>2022-09-02T18:44:08.399Z</time>
      </trkpt>
      <trkpt lat="50.56658" lon="3.46212">
        <ele>40.712796</ele>
        <time>2022-09-02T18:44:13.560Z</time>
      </trkpt>
      <trkpt lat="50.5666" lon="3.46104">
        <ele>40.428552</ele>
        <time>2022-09-02T18:44:23.409Z</time>
      </trkpt>
      <trkpt lat="50.56665" lon="3.46009">
        <ele>40.179148</ele>
        <time>2022-09-02T18:44:31.051Z</time>
      </trkpt>
      <trkpt lat="50.5668" lon="3.45879">
        <ele>39.563103</ele>
        <time>2022-09-02T18:44:41.356Z</time>
      </trkpt>
      <trkpt lat="50.56703" lon="3.45751">
        <ele>38.735369</ele>
        <time>2022-09-02T18:44:51.636Z</time>
      </trkpt>
      <trkpt lat="50.56729" lon="3.45649">
        <ele>38.161261</ele>
        <time>2022-09-02T18:45:00.261Z</time>
      </trkpt>
      <trkpt lat="50.5676" lon="3.4556">
        <ele>37.819581</ele>
        <time>2022-09-02T18:45:08.643Z</time>
      </trkpt>
      <trkpt lat="50.56801" lon="3.45471">
        <ele>37.452816</ele>
        <time>2022-09-02T18:45:18.072Z</time>
      </trkpt>
      <trkpt lat="50.56938" lon="3.45231">
        <ele>36.688835</ele>
        <time>2022-09-02T18:45:46.579Z</time>
      </trkpt>
      <trkpt lat="50.57001" lon="3.4515">
        <ele>36.007652</ele>
        <time>2022-09-02T18:45:56.842Z</time>
      </trkpt>
      <trkpt lat="50.57124" lon="3.45032">
        <ele>34.517752</ele>
        <time>2022-09-02T18:46:14.393Z</time>
      </trkpt>
      <trkpt lat="50.57159" lon="3.44979">
        <ele>33.830857</ele>
        <time>2022-09-02T18:46:20.147Z</time>
      </trkpt>
      <trkpt lat="50.57181" lon="3.44928">
        <ele>33.267134</ele>
        <time>2022-09-02T18:46:24.726Z</time>
      </trkpt>
      <trkpt lat="50.57198" lon="3.44879">
        <ele>32.760043</ele>
        <time>2022-09-02T18:46:28.730Z</time>
      </trkpt>
      <trkpt lat="50.57213" lon="3.44767">
        <ele>30.528537</ele>
        <time>2022-09-02T18:46:36.542Z</time>
      </trkpt>
      <trkpt lat="50.57225" lon="3.44559">
        <ele>26.116917</ele>
        <time>2022-09-02T18:46:49.509Z</time>
      </trkpt>
      <trkpt lat="50.57241" lon="3.44436">
        <ele>23.290393</ele>
        <time>2022-09-02T18:46:57.251Z</time>
      </trkpt>
      <trkpt lat="50.57252" lon="3.44422">
        <ele>22.785314</ele>
        <time>2022-09-02T18:46:58.667Z</time>
      </trkpt>
      <trkpt lat="50.57256" lon="3.44407">
        <ele>22.432283</ele>
        <time>2022-09-02T18:46:59.656Z</time>
      </trkpt>
      <trkpt lat="50.57252" lon="3.44385">
        <ele>21.912211</ele>
        <time>2022-09-02T18:47:01.144Z</time>
      </trkpt>
      <trkpt lat="50.57276" lon="3.4437">
        <ele>20.982102</ele>
        <time>2022-09-02T18:47:05.008Z</time>
      </trkpt>
      <trkpt lat="50.57346" lon="3.44375">
        <ele>19.886598</ele>
        <time>2022-09-02T18:47:15.820Z</time>
      </trkpt>
      <trkpt lat="50.57535" lon="3.44384">
        <ele>18.542641</ele>
        <time>2022-09-02T18:47:52.517Z</time>
      </trkpt>
      <trkpt lat="50.57633" lon="3.44381">
        <ele>18.248042</ele>
        <time>2022-09-02T18:48:11.234Z</time>
      </trkpt>
      <trkpt lat="50.57852" lon="3.44354">
        <ele>17.598362</ele>
        <time>2022-09-02T18:48:52.291Z</time>
      </trkpt>
      <trkpt lat="50.57901" lon="3.44345">
        <ele>17.834383</ele>
        <time>2022-09-02T18:49:03.105Z</time>
      </trkpt>
      <trkpt lat="50.58088" lon="3.44256">
        <ele>18.883834</ele>
        <time>2022-09-02T18:49:48.510Z</time>
      </trkpt>
      <trkpt lat="50.58104" lon="3.44247">
        <ele>18.994089</ele>
        <time>2022-09-02T18:49:51.514Z</time>
      </trkpt>
      <trkpt lat="50.58231" lon="3.44094">
        <ele>19.61925</ele>
        <time>2022-09-02T18:50:18.354Z</time>
      </trkpt>
      <trkpt lat="50.58322" lon="3.43944">
        <ele>19.603133</ele>
        <time>2022-09-02T18:50:37.580Z</time>
      </trkpt>
      <trkpt lat="50.58498" lon="3.43639">
        <ele>18.03669</ele>
        <time>2022-09-02T18:51:11.296Z</time>
      </trkpt>
      <trkpt lat="50.58584" lon="3.43445">
        <ele>16.852186</ele>
        <time>2022-09-02T18:51:30.275Z</time>
      </trkpt>
      <trkpt lat="50.58677" lon="3.43278">
        <ele>15.832226</ele>
        <time>2022-09-02T18:51:47.692Z</time>
      </trkpt>
      <trkpt lat="50.5871" lon="3.43211">
        <ele>15.585341</ele>
        <time>2022-09-02T18:51:54.600Z</time>
      </trkpt>
      <trkpt lat="50.58744" lon="3.4314">
        <ele>15.324256</ele>
        <time>2022-09-02T18:52:02.537Z</time>
      </trkpt>
      <trkpt lat="50.58753" lon="3.43121">
        <ele>15.256838</ele>
        <time>2022-09-02T18:52:04.723Z</time>
      </trkpt>
      <trkpt lat="50.58768" lon="3.43087">
        <ele>15.205348</ele>
        <time>2022-09-02T18:52:08.880Z</time>
      </trkpt>
      <trkpt lat="50.58795" lon="3.4303">
        <ele>15.176826</ele>
        <time>2022-09-02T18:52:15.908Z</time>
      </trkpt>
      <trkpt lat="50.58854" lon="3.42906">
        <ele>15.115431</ele>
        <time>2022-09-02T18:52:30.121Z</time>
      </trkpt>
      <trkpt lat="50.58893" lon="3.42802">
        <ele>15.579125</ele>
        <time>2022-09-02T18:52:40.554Z</time>
      </trkpt>
      <trkpt lat="50.589" lon="3.42781">
        <ele>15.702354</ele>
        <time>2022-09-02T18:52:42.929Z</time>
      </trkpt>
      <trkpt lat="50.58913" lon="3.42748">
        <ele>15.901047</ele>
        <time>2022-09-02T18:52:47.058Z</time>
      </trkpt>
      <trkpt lat="50.58887" lon="3.42704">
        <ele>16.21115</ele>
        <time>2022-09-02T18:52:54.349Z</time>
      </trkpt>
      <trkpt lat="50.58868" lon="3.42671">
        <ele>16.442079</ele>
        <time>2022-09-02T18:53:00.545Z</time>
      </trkpt>
      <trkpt lat="50.58825" lon="3.42588">
        <ele>17.944903</ele>
        <time>2022-09-02T18:53:17.684Z</time>
      </trkpt>
      <trkpt lat="50.58801" lon="3.42545">
        <ele>18.89435</ele>
        <time>2022-09-02T18:53:27.258Z</time>
      </trkpt>
      <trkpt lat="50.58762" lon="3.42474">
        <ele>20.464007</ele>
        <time>2022-09-02T18:53:44.515Z</time>
      </trkpt>
      <trkpt lat="50.58771" lon="3.42463">
        <ele>20.755959</ele>
        <time>2022-09-02T18:53:47.152Z</time>
      </trkpt>
      <trkpt lat="50.588" lon="3.42427">
        <ele>21.524856</ele>
        <time>2022-09-02T18:53:56.112Z</time>
      </trkpt>
      <trkpt lat="50.58859" lon="3.42302">
        <ele>22.928563</ele>
        <time>2022-09-02T18:54:14.429Z</time>
      </trkpt>
      <trkpt lat="50.58939" lon="3.42226">
        <ele>24.500788</ele>
        <time>2022-09-02T18:54:33.418Z</time>
      </trkpt>
      <trkpt lat="50.58951" lon="3.42216">
        <ele>24.795623</ele>
        <time>2022-09-02T18:54:36.236Z</time>
      </trkpt>
      <trkpt lat="50.58911" lon="3.42148">
        <ele>26.144105</ele>
        <time>2022-09-02T18:54:52.641Z</time>
      </trkpt>
      <trkpt lat="50.58889" lon="3.42126">
        <ele>26.738334</ele>
        <time>2022-09-02T18:54:59.943Z</time>
      </trkpt>
      <trkpt lat="50.58835" lon="3.42101">
        <ele>28.050625</ele>
        <time>2022-09-02T18:55:18.434Z</time>
      </trkpt>
      <trkpt lat="50.58797" lon="3.4205">
        <ele>29.665766</ele>
        <time>2022-09-02T18:55:36.900Z</time>
      </trkpt>
      <trkpt lat="50.58782" lon="3.41999">
        <ele>30.803172</ele>
        <time>2022-09-02T18:55:49.382Z</time>
      </trkpt>
      <trkpt lat="50.58749" lon="3.41943">
        <ele>32.374326</ele>
        <time>2022-09-02T18:56:05.430Z</time>
      </trkpt>
      <trkpt lat="50.5886" lon="3.41673">
        <ele>37.175804</ele>
        <time>2022-09-02T18:57:05.896Z</time>
      </trkpt>
      <trkpt lat="50.58575" lon="3.41319">
        <ele>40.96381</ele>
        <time>2022-09-02T18:58:32.367Z</time>
      </trkpt>
      <trkpt lat="50.58293" lon="3.40966">
        <ele>44.719411</ele>
        <time>2022-09-02T19:00:01.810Z</time>
      </trkpt>
      <trkpt lat="50.58273" lon="3.40976">
        <ele>44.865384</ele>
        <time>2022-09-02T19:00:05.207Z</time>
      </trkpt>
      <trkpt lat="50.57965" lon="3.41102">
        <ele>44.619741</ele>
        <time>2022-09-02T19:00:51.487Z</time>
      </trkpt>
      <trkpt lat="50.57959" lon="3.41104">
        <ele>44.603913</ele>
        <time>2022-09-02T19:00:52.278Z</time>
      </trkpt>
      <trkpt lat="50.57683" lon="3.41203">
        <ele>42.708386</ele>
        <time>2022-09-02T19:01:27.970Z</time>
      </trkpt>
      <trkpt lat="50.57598" lon="3.41241">
        <ele>42.143808</ele>
        <time>2022-09-02T19:01:39.552Z</time>
      </trkpt>
      <trkpt lat="50.57553" lon="3.41271">
        <ele>41.981532</ele>
        <time>2022-09-02T19:01:46.022Z</time>
      </trkpt>
      <trkpt lat="50.57461" lon="3.41348">
        <ele>41.804961</ele>
        <time>2022-09-02T19:02:00.856Z</time>
      </trkpt>
      <trkpt lat="50.57384" lon="3.41417">
        <ele>42.000847</ele>
        <time>2022-09-02T19:02:14.259Z</time>
      </trkpt>
      <trkpt lat="50.57358" lon="3.4144">
        <ele>42.182241</ele>
        <time>2022-09-02T19:02:18.979Z</time>
      </trkpt>
      <trkpt lat="50.5735" lon="3.41427">
        <ele>42.252159</ele>
        <time>2022-09-02T19:02:21.670Z</time>
      </trkpt>
      <trkpt lat="50.57321" lon="3.41423">
        <ele>42.436983</ele>
        <time>2022-09-02T19:02:28.505Z</time>
      </trkpt>
      <trkpt lat="50.57085" lon="3.41499">
        <ele>45.046217</ele>
        <time>2022-09-02T19:03:27.719Z</time>
      </trkpt>
      <trkpt lat="50.56806" lon="3.41538">
        <ele>50.526711</ele>
        <time>2022-09-02T19:04:48.235Z</time>
      </trkpt>
      <trkpt lat="50.56738" lon="3.41558">
        <ele>51.814228</ele>
        <time>2022-09-02T19:05:06.999Z</time>
      </trkpt>
      <trkpt lat="50.56641" lon="3.4157">
        <ele>53.197851</ele>
        <time>2022-09-02T19:05:32.233Z</time>
      </trkpt>
      <trkpt lat="50.56556" lon="3.41595">
        <ele>54.372496</ele>
        <time>2022-09-02T19:05:54.547Z</time>
      </trkpt>
      <trkpt lat="50.56415" lon="3.41183">
        <ele>56.134133</ele>
        <time>2022-09-02T19:07:05.531Z</time>
      </trkpt>
      <trkpt lat="50.56354" lon="3.40823">
        <ele>53.242872</ele>
        <time>2022-09-02T19:07:44.346Z</time>
      </trkpt>
      <trkpt lat="50.56313" lon="3.40575">
        <ele>49.018262</ele>
        <time>2022-09-02T19:08:08.658Z</time>
      </trkpt>
      <trkpt lat="50.56171" lon="3.40617">
        <ele>45.062038</ele>
        <time>2022-09-02T19:08:30.120Z</time>
      </trkpt>
      <trkpt lat="50.56024" lon="3.40673">
        <ele>41.314054</ele>
        <time>2022-09-02T19:08:53.007Z</time>
      </trkpt>
      <trkpt lat="50.56017" lon="3.40676">
        <ele>41.140811</ele>
        <time>2022-09-02T19:08:54.196Z</time>
      </trkpt>
      <trkpt lat="50.55961" lon="3.40698">
        <ele>39.843093</ele>
        <time>2022-09-02T19:09:03.140Z</time>
      </trkpt>
      <trkpt lat="50.55796" lon="3.40766">
        <ele>36.129772</ele>
        <time>2022-09-02T19:09:30.182Z</time>
      </trkpt>
      <trkpt lat="50.55491" lon="3.40865">
        <ele>28.2824</ele>
        <time>2022-09-02T19:10:16.402Z</time>
      </trkpt>
      <trkpt lat="50.55458" lon="3.40861">
        <ele>27.611931</ele>
        <time>2022-09-02T19:10:21.684Z</time>
      </trkpt>
      <trkpt lat="50.55329" lon="3.40904">
        <ele>26.36517</ele>
        <time>2022-09-02T19:10:45.175Z</time>
      </trkpt>
      <trkpt lat="50.55282" lon="3.40911">
        <ele>26.306626</ele>
        <time>2022-09-02T19:10:55.016Z</time>
      </trkpt>
      <trkpt lat="50.55256" lon="3.40908">
        <ele>26.273781</ele>
        <time>2022-09-02T19:11:00.746Z</time>
      </trkpt>
      <trkpt lat="50.5525" lon="3.40918">
        <ele>26.262975</ele>
        <time>2022-09-02T19:11:02.610Z</time>
      </trkpt>
      <trkpt lat="50.55128" lon="3.40966">
        <ele>26.777964</ele>
        <time>2022-09-02T19:11:31.120Z</time>
      </trkpt>
      <trkpt lat="50.54933" lon="3.41026">
        <ele>27.579874</ele>
        <time>2022-09-02T19:12:15.033Z</time>
      </trkpt>
      <trkpt lat="50.54828" lon="3.4106">
        <ele>27.480231</ele>
        <time>2022-09-02T19:12:37.018Z</time>
      </trkpt>
      <trkpt lat="50.54776" lon="3.41089">
        <ele>27.151987</ele>
        <time>2022-09-02T19:12:47.361Z</time>
      </trkpt>
      <trkpt lat="50.54744" lon="3.41124">
        <ele>26.923176</ele>
        <time>2022-09-02T19:12:54.176Z</time>
      </trkpt>
      <trkpt lat="50.54707" lon="3.41187">
        <ele>26.405707</ele>
        <time>2022-09-02T19:13:03.451Z</time>
      </trkpt>
      <trkpt lat="50.5456" lon="3.4153">
        <ele>22.228075</ele>
        <time>2022-09-02T19:13:45.551Z</time>
      </trkpt>
      <trkpt lat="50.54535" lon="3.41674">
        <ele>21.043343</ele>
        <time>2022-09-02T19:14:01.964Z</time>
      </trkpt>
      <trkpt lat="50.54517" lon="3.41725">
        <ele>20.860296</ele>
        <time>2022-09-02T19:14:08.757Z</time>
      </trkpt>
      <trkpt lat="50.54439" lon="3.41907">
        <ele>20.166574</ele>
        <time>2022-09-02T19:14:35.324Z</time>
      </trkpt>
      <trkpt lat="50.54417" lon="3.41925">
        <ele>20.043317</ele>
        <time>2022-09-02T19:14:39.850Z</time>
      </trkpt>
      <trkpt lat="50.54358" lon="3.41944">
        <ele>19.738631</ele>
        <time>2022-09-02T19:14:51.066Z</time>
      </trkpt>
      <trkpt lat="50.5432" lon="3.41974">
        <ele>19.527682</ele>
        <time>2022-09-02T19:14:58.813Z</time>
      </trkpt>
      <trkpt lat="50.54293" lon="3.42015">
        <ele>19.335947</ele>
        <time>2022-09-02T19:15:05.752Z</time>
      </trkpt>
      <trkpt lat="50.54221" lon="3.42162">
        <ele>19.103135</ele>
        <time>2022-09-02T19:15:27.934Z</time>
      </trkpt>
      <trkpt lat="50.5421" lon="3.42175">
        <ele>19.07705</ele>
        <time>2022-09-02T19:15:30.602Z</time>
      </trkpt>
      <trkpt lat="50.54211" lon="3.42191">
        <ele>19.057377</ele>
        <time>2022-09-02T19:15:32.086Z</time>
      </trkpt>
      <trkpt lat="50.54233" lon="3.42405">
        <ele>19.379919</ele>
        <time>2022-09-02T19:15:54.355Z</time>
      </trkpt>
      <trkpt lat="50.54235" lon="3.42431">
        <ele>19.44807</ele>
        <time>2022-09-02T19:15:56.993Z</time>
      </trkpt>
      <trkpt lat="50.54249" lon="3.42573">
        <ele>19.806209</ele>
        <time>2022-09-02T19:16:12.807Z</time>
      </trkpt>
      <trkpt lat="50.54239" lon="3.42675">
        <ele>20.025513</ele>
        <time>2022-09-02T19:16:23.999Z</time>
      </trkpt>
      <trkpt lat="50.54325" lon="3.427">
        <ele>20.319766</ele>
        <time>2022-09-02T19:16:37.911Z</time>
      </trkpt>
      <trkpt lat="50.54416" lon="3.42728">
        <ele>19.683859</ele>
        <time>2022-09-02T19:16:50.571Z</time>
      </trkpt>
      <trkpt lat="50.54421" lon="3.42744">
        <ele>19.605314</ele>
        <time>2022-09-02T19:16:51.985Z</time>
      </trkpt>
      <trkpt lat="50.5442" lon="3.42792">
        <ele>19.391286</ele>
        <time>2022-09-02T19:16:55.737Z</time>
      </trkpt>
      <trkpt lat="50.54379" lon="3.43038">
        <ele>17.640333</ele>
        <time>2022-09-02T19:17:14.412Z</time>
      </trkpt>
      <trkpt lat="50.54371" lon="3.43046">
        <ele>17.513175</ele>
        <time>2022-09-02T19:17:15.629Z</time>
      </trkpt>
      <trkpt lat="50.5437" lon="3.43049">
        <ele>17.487825</ele>
        <time>2022-09-02T19:17:15.859Z</time>
      </trkpt>
      <trkpt lat="50.54376" lon="3.43061">
        <ele>17.373465</ele>
        <time>2022-09-02T19:17:16.900Z</time>
      </trkpt>
      <trkpt lat="50.54304" lon="3.43511">
        <ele>15.338481</ele>
        <time>2022-09-02T19:17:54.582Z</time>
      </trkpt>
      <trkpt lat="50.54302" lon="3.43522">
        <ele>15.319802</ele>
        <time>2022-09-02T19:17:55.609Z</time>
      </trkpt>
      <trkpt lat="50.54286" lon="3.43627">
        <ele>15.149372</ele>
        <time>2022-09-02T19:18:05.549Z</time>
      </trkpt>
      <trkpt lat="50.54225" lon="3.43987">
        <ele>16.114559</ele>
        <time>2022-09-02T19:18:44.373Z</time>
      </trkpt>
      <trkpt lat="50.54177" lon="3.44294">
        <ele>18.245363</ele>
        <time>2022-09-02T19:19:25.172Z</time>
      </trkpt>
      <trkpt lat="50.54174" lon="3.44314">
        <ele>18.334781</ele>
        <time>2022-09-02T19:19:27.684Z</time>
      </trkpt>
      <trkpt lat="50.54142" lon="3.44503">
        <ele>19.179205</ele>
        <time>2022-09-02T19:19:48.895Z</time>
      </trkpt>
      <trkpt lat="50.54132" lon="3.44556">
        <ele>19.064957</ele>
        <time>2022-09-02T19:19:53.695Z</time>
      </trkpt>
      <trkpt lat="50.54107" lon="3.44685">
        <ele>18.780783</ele>
        <time>2022-09-02T19:20:04.988Z</time>
      </trkpt>
      <trkpt lat="50.54084" lon="3.44813">
        <ele>18.551218</ele>
        <time>2022-09-02T19:20:16.045Z</time>
      </trkpt>
      <trkpt lat="50.54084" lon="3.44834">
        <ele>18.529541</ele>
        <time>2022-09-02T19:20:17.825Z</time>
      </trkpt>
      <trkpt lat="50.54079" lon="3.44862">
        <ele>18.499569</ele>
        <time>2022-09-02T19:20:20.459Z</time>
      </trkpt>
      <trkpt lat="50.5404" lon="3.45071">
        <ele>18.323773</ele>
        <time>2022-09-02T19:20:40.883Z</time>
      </trkpt>
      <trkpt lat="50.54001" lon="3.45313">
        <ele>18.448321</ele>
        <time>2022-09-02T19:21:04.974Z</time>
      </trkpt>
      <trkpt lat="50.5388" lon="3.46164">
        <ele>20.184899</ele>
        <time>2022-09-02T19:22:33.067Z</time>
      </trkpt>
      <trkpt lat="50.53868" lon="3.46217">
        <ele>20.663988</ele>
        <time>2022-09-02T19:22:39.964Z</time>
      </trkpt>
      <trkpt lat="50.53844" lon="3.46263">
        <ele>21.169617</ele>
        <time>2022-09-02T19:22:47.596Z</time>
      </trkpt>
      <trkpt lat="50.53712" lon="3.46368">
        <ele>23.045057</ele>
        <time>2022-09-02T19:23:19.883Z</time>
      </trkpt>
      <trkpt lat="50.53601" lon="3.4645">
        <ele>24.455111</ele>
        <time>2022-09-02T19:23:43.457Z</time>
      </trkpt>
      <trkpt lat="50.5341" lon="3.46593">
        <ele>25.326915</ele>
        <time>2022-09-02T19:24:15.269Z</time>
      </trkpt>
      <trkpt lat="50.53356" lon="3.46634">
        <ele>26.134751</ele>
        <time>2022-09-02T19:24:27.505Z</time>
      </trkpt>
      <trkpt lat="50.53195" lon="3.46763">
        <ele>27.99479</ele>
        <time>2022-09-02T19:25:07.801Z</time>
      </trkpt>
      <trkpt lat="50.53043" lon="3.46827">
        <ele>27.886619</ele>
        <time>2022-09-02T19:25:28.888Z</time>
      </trkpt>
      <trkpt lat="50.53018" lon="3.46828">
        <ele>27.610236</ele>
        <time>2022-09-02T19:25:31.693Z</time>
      </trkpt>
      <trkpt lat="50.53008" lon="3.46817">
        <ele>27.472352</ele>
        <time>2022-09-02T19:25:33.071Z</time>
      </trkpt>
      <trkpt lat="50.52951" lon="3.46484">
        <ele>24.649113</ele>
        <time>2022-09-02T19:25:58.500Z</time>
      </trkpt>
      <trkpt lat="50.52939" lon="3.46351">
        <ele>23.609022</ele>
        <time>2022-09-02T19:26:08.505Z</time>
      </trkpt>
      <trkpt lat="50.52899" lon="3.46191">
        <ele>22.406234</ele>
        <time>2022-09-02T19:26:21.707Z</time>
      </trkpt>
      <trkpt lat="50.52802" lon="3.4571">
        <ele>20.371196</ele>
        <time>2022-09-02T19:27:03.782Z</time>
      </trkpt>
      <trkpt lat="50.52769" lon="3.45601">
        <ele>19.822134</ele>
        <time>2022-09-02T19:27:13.535Z</time>
      </trkpt>
      <trkpt lat="50.52741" lon="3.45438">
        <ele>18.759855</ele>
        <time>2022-09-02T19:27:26.659Z</time>
      </trkpt>
      <trkpt lat="50.52726" lon="3.45386">
        <ele>18.397871</ele>
        <time>2022-09-02T19:27:31.005Z</time>
      </trkpt>
      <trkpt lat="50.52719" lon="3.45338">
        <ele>18.13233</ele>
        <time>2022-09-02T19:27:34.799Z</time>
      </trkpt>
      <trkpt lat="50.52698" lon="3.45225">
        <ele>17.697811</ele>
        <time>2022-09-02T19:27:44.144Z</time>
      </trkpt>
      <trkpt lat="50.52679" lon="3.45193">
        <ele>17.535185</ele>
        <time>2022-09-02T19:27:47.806Z</time>
      </trkpt>
      <trkpt lat="50.52608" lon="3.45115">
        <ele>17.11841</ele>
        <time>2022-09-02T19:27:59.990Z</time>
      </trkpt>
      <trkpt lat="50.52594" lon="3.45088">
        <ele>17.087544</ele>
        <time>2022-09-02T19:28:03.096Z</time>
      </trkpt>
      <trkpt lat="50.52578" lon="3.45027">
        <ele>17.027529</ele>
        <time>2022-09-02T19:28:09.262Z</time>
      </trkpt>
      <trkpt lat="50.52556" lon="3.44992">
        <ele>16.983546</ele>
        <time>2022-09-02T19:28:13.893Z</time>
      </trkpt>
      <trkpt lat="50.52485" lon="3.44966">
        <ele>16.88078</ele>
        <time>2022-09-02T19:28:24.332Z</time>
      </trkpt>
      <trkpt lat="50.52397" lon="3.4497">
        <ele>16.756663</ele>
        <time>2022-09-02T19:28:36.576Z</time>
      </trkpt>
      <trkpt lat="50.52354" lon="3.44967">
        <ele>16.696199</ele>
        <time>2022-09-02T19:28:42.688Z</time>
      </trkpt>
      <trkpt lat="50.52339" lon="3.44949">
        <ele>16.668996</ele>
        <time>2022-09-02T19:28:45.527Z</time>
      </trkpt>
      <trkpt lat="50.52311" lon="3.44887">
        <ele>16.667849</ele>
        <time>2022-09-02T19:28:52.677Z</time>
      </trkpt>
      <trkpt lat="50.52281" lon="3.44844">
        <ele>16.709299</ele>
        <time>2022-09-02T19:28:58.792Z</time>
      </trkpt>
      <trkpt lat="50.52251" lon="3.448">
        <ele>16.751963</ele>
        <time>2022-09-02T19:29:05.131Z</time>
      </trkpt>
      <trkpt lat="50.52222" lon="3.44745">
        <ele>16.798896</ele>
        <time>2022-09-02T19:29:12.143Z</time>
      </trkpt>
      <trkpt lat="50.52189" lon="3.44712">
        <ele>16.793792</ele>
        <time>2022-09-02T19:29:18.319Z</time>
      </trkpt>
      <trkpt lat="50.52143" lon="3.44666">
        <ele>16.674167</ele>
        <time>2022-09-02T19:29:26.416Z</time>
      </trkpt>
      <trkpt lat="50.52116" lon="3.44669">
        <ele>16.615686</ele>
        <time>2022-09-02T19:29:30.097Z</time>
      </trkpt>
      <trkpt lat="50.52105" lon="3.44679">
        <ele>16.586456</ele>
        <time>2022-09-02T19:29:31.906Z</time>
      </trkpt>
      <trkpt lat="50.52092" lon="3.44691">
        <ele>16.553312</ele>
        <time>2022-09-02T19:29:33.980Z</time>
      </trkpt>
      <trkpt lat="50.52089" lon="3.44693">
        <ele>16.547452</ele>
        <time>2022-09-02T19:29:34.344Z</time>
      </trkpt>
      <trkpt lat="50.52072" lon="3.44707">
        <ele>16.504316</ele>
        <time>2022-09-02T19:29:36.958Z</time>
      </trkpt>
      <trkpt lat="50.52034" lon="3.44722">
        <ele>16.407672</ele>
        <time>2022-09-02T19:29:42.176Z</time>
      </trkpt>
      <trkpt lat="50.51991" lon="3.44724">
        <ele>16.222961</ele>
        <time>2022-09-02T19:29:47.862Z</time>
      </trkpt>
      <trkpt lat="50.51953" lon="3.44702">
        <ele>16.046543</ele>
        <time>2022-09-02T19:29:53.302Z</time>
      </trkpt>
      <trkpt lat="50.51925" lon="3.44675">
        <ele>15.905269</ele>
        <time>2022-09-02T19:29:57.602Z</time>
      </trkpt>
      <trkpt lat="50.51845" lon="3.44602">
        <ele>15.708766</ele>
        <time>2022-09-02T19:30:10.245Z</time>
      </trkpt>
      <trkpt lat="50.51818" lon="3.44585">
        <ele>15.755652</ele>
        <time>2022-09-02T19:30:14.465Z</time>
      </trkpt>
      <trkpt lat="50.51727" lon="3.44527">
        <ele>15.91689</ele>
        <time>2022-09-02T19:30:30.327Z</time>
      </trkpt>
      <trkpt lat="50.51599" lon="3.44445">
        <ele>16.441957</ele>
        <time>2022-09-02T19:30:53.731Z</time>
      </trkpt>
      <trkpt lat="50.51573" lon="3.44428">
        <ele>16.558417</ele>
        <time>2022-09-02T19:30:58.298Z</time>
      </trkpt>
      <trkpt lat="50.5149" lon="3.44396">
        <ele>16.585317</ele>
        <time>2022-09-02T19:31:11.618Z</time>
      </trkpt>
      <trkpt lat="50.51346" lon="3.4435">
        <ele>16.249485</ele>
        <time>2022-09-02T19:31:31.593Z</time>
      </trkpt>
      <trkpt lat="50.5134" lon="3.44349">
        <ele>16.227614</ele>
        <time>2022-09-02T19:31:32.354Z</time>
      </trkpt>
      <trkpt lat="50.51322" lon="3.4435">
        <ele>16.156393</ele>
        <time>2022-09-02T19:31:34.778Z</time>
      </trkpt>
      <trkpt lat="50.51266" lon="3.44369">
        <ele>15.940284</ele>
        <time>2022-09-02T19:31:42.465Z</time>
      </trkpt>
      <trkpt lat="50.51187" lon="3.44406">
        <ele>15.628604</ele>
        <time>2022-09-02T19:31:53.742Z</time>
      </trkpt>
      <trkpt lat="50.51116" lon="3.44468">
        <ele>15.439773</ele>
        <time>2022-09-02T19:32:05.010Z</time>
      </trkpt>
      <trkpt lat="50.50888" lon="3.44666">
        <ele>15.033812</ele>
        <time>2022-09-02T19:32:41.725Z</time>
      </trkpt>
      <trkpt lat="50.50707" lon="3.44823">
        <ele>15.494047</ele>
        <time>2022-09-02T19:33:14.777Z</time>
      </trkpt>
      <trkpt lat="50.50661" lon="3.44894">
        <ele>15.638622</ele>
        <time>2022-09-02T19:33:25.044Z</time>
      </trkpt>
      <trkpt lat="50.50599" lon="3.45026">
        <ele>15.879296</ele>
        <time>2022-09-02T19:33:41.153Z</time>
      </trkpt>
      <trkpt lat="50.50551" lon="3.45111">
        <ele>16.313443</ele>
        <time>2022-09-02T19:33:53.013Z</time>
      </trkpt>
      <trkpt lat="50.50513" lon="3.45201">
        <ele>16.723089</ele>
        <time>2022-09-02T19:34:05.154Z</time>
      </trkpt>
      <trkpt lat="50.50477" lon="3.45312">
        <ele>17.316704</ele>
        <time>2022-09-02T19:34:19.633Z</time>
      </trkpt>
      <trkpt lat="50.50471" lon="3.45343">
        <ele>17.498399</ele>
        <time>2022-09-02T19:34:23.414Z</time>
      </trkpt>
      <trkpt lat="50.50458" lon="3.45443">
        <ele>18.074184</ele>
        <time>2022-09-02T19:34:35.414Z</time>
      </trkpt>
      <trkpt lat="50.50444" lon="3.45482">
        <ele>18.327811</ele>
        <time>2022-09-02T19:34:40.845Z</time>
      </trkpt>
      <trkpt lat="50.50448" lon="3.45497">
        <ele>18.418356</ele>
        <time>2022-09-02T19:34:42.788Z</time>
      </trkpt>
      <trkpt lat="50.50443" lon="3.45552">
        <ele>18.654556</ele>
        <time>2022-09-02T19:34:49.416Z</time>
      </trkpt>
      <trkpt lat="50.5044" lon="3.45588">
        <ele>18.782415</ele>
        <time>2022-09-02T19:34:53.448Z</time>
      </trkpt>
      <trkpt lat="50.50437" lon="3.45631">
        <ele>18.933906</ele>
        <time>2022-09-02T19:34:57.943Z</time>
      </trkpt>
      <trkpt lat="50.50433" lon="3.4572">
        <ele>19.241642</ele>
        <time>2022-09-02T19:35:07.386Z</time>
      </trkpt>
      <trkpt lat="50.50424" lon="3.45772">
        <ele>19.429992</ele>
        <time>2022-09-02T19:35:13.044Z</time>
      </trkpt>
      <trkpt lat="50.50408" lon="3.45851">
        <ele>19.696093</ele>
        <time>2022-09-02T19:35:21.810Z</time>
      </trkpt>
      <trkpt lat="50.50345" lon="3.46155">
        <ele>20.527689</ele>
        <time>2022-09-02T19:35:56.141Z</time>
      </trkpt>
      <trkpt lat="50.50335" lon="3.46236">
        <ele>20.641555</ele>
        <time>2022-09-02T19:36:04.331Z</time>
      </trkpt>
      <trkpt lat="50.50313" lon="3.46411">
        <ele>20.788062</ele>
        <time>2022-09-02T19:36:21.036Z</time>
      </trkpt>
      <trkpt lat="50.50316" lon="3.46422">
        <ele>20.788062</ele>
        <time>2022-09-02T19:36:22.205Z</time>
      </trkpt>
      <trkpt lat="50.50352" lon="3.46446">
        <ele>20.788062</ele>
        <time>2022-09-02T19:36:27.693Z</time>
      </trkpt>
    </trkseg>
  </trk>
</gpx>